Time;durP1;ratioP1;P1;durP2;ratioP2;P2;SDS_P1;SDS_P2;PMS_P1;PMS_P2;Temp;Humidity;BMP_temperature;BMP_pressure;BME280_temperature;BME280_humidity;BME280_pressure;Samples;Min_cycle;Max_cycle;Signal;HPM_P1;HPM_P2
2022/10/19 03:12:01;;;;;;;;;;;11.30;99.90;;;;;;4885267;29;19969;-73
2022/10/19 13:50:09;;;;;;;;;;;18.40;99.90;;;;;;4870685;29;20390;-74
2022/10/19 14:07:49;;;;;;;;;;;18.40;99.90;;;;;;4882312;29;19918;-75
2022/10/19 14:25:25;;;;;;;;;;;19.10;99.90;;;;;;5645796;23;19931;-87
2022/10/19 14:27:59;;;;;;;;;;;18.70;99.90;;;;;;5165988;23;19934;-78
2022/10/19 14:30:26;;;;;;;;;;;18.30;99.90;;;;;;4958182;29;19977;-90
2022/10/19 14:32:52;;;;;;;;;;;17.90;99.90;;;;;;4925864;29;19927;-89
2022/10/19 14:35:38;;;;;;;;;;;17.70;99.90;;;;;;4941516;29;19927;-92
2022/10/19 14:38:04;;;;;;;;;;;17.40;99.90;;;;;;4941696;29;19926;-91
2022/10/19 14:40:31;;;;;;;;;;;17.20;99.90;;;;;;4941896;29;20419;-90
2022/10/19 14:42:58;;;;;;;;;;;16.90;99.90;;;;;;4925632;29;19974;-89
2022/10/19 14:45:25;;;;;;;;;;;16.80;99.90;;;;;;4941784;29;19937;-92
2022/10/19 14:47:51;;;;;;;;;;;16.70;99.90;;;;;;4925919;29;19926;-89
2022/10/19 14:50:17;;;;;;;;;;;16.50;99.90;;;;;;4925411;29;19981;-90
2022/10/19 14:52:43;;;;;;;;;;;16.40;99.90;;;;;;4942196;29;19937;-87
2022/10/19 14:55:14;;;;;;;;;;;16.20;99.90;;;;;;4910391;29;19927;-84
2022/10/19 14:57:41;;;;;;;;;;;16.10;99.90;;;;;;4925892;29;19950;-92
2022/10/19 15:00:13;;;;;;;;;;;15.90;99.90;;;;;;4942128;29;20251;-91
2022/10/19 15:02:43;;;;;;;;;;;15.70;99.90;;;;;;4926060;29;20389;-89
2022/10/19 15:05:18;;;;;;;;;;;15.60;99.90;;;;;;4925719;29;19933;-90
2022/10/19 15:07:44;;;;;;;;;;;15.50;99.90;;;;;;4925095;29;20397;-89
2022/10/19 15:10:19;;;;;;;;;;;15.40;99.90;;;;;;4909552;29;19927;-88
2022/10/19 15:12:45;;;;;;;;;;;15.30;99.90;;;;;;4925113;29;19926;-83
2022/10/19 15:15:27;;;;;;;;;;;15.20;99.90;;;;;;4941741;29;19926;-92
2022/10/19 15:17:55;;;;;;;;;;;15.10;99.90;;;;;;4941084;29;19930;-87
2022/10/19 15:20:25;;;;;;;;;;;14.90;99.90;;;;;;4940717;29;19933;-88
2022/10/19 15:22:51;;;;;;;;;;;14.80;99.90;;;;;;4924957;29;19927;-89
2022/10/19 15:25:22;;;;;;;;;;;14.70;99.90;;;;;;4924301;29;19937;-87
2022/10/19 15:27:49;;;;;;;;;;;14.60;99.90;;;;;;4939610;29;19933;-86
2022/10/19 15:30:16;;;;;;;;;;;14.60;99.90;;;;;;4924354;29;21522;-87
2022/10/19 15:32:42;;;;;;;;;;;14.50;99.90;;;;;;4925172;29;20013;-91
2022/10/19 15:35:12;;;;;;;;;;;14.40;99.90;;;;;;4924391;29;19930;-90
2022/10/19 15:37:39;;;;;;;;;;;14.30;99.90;;;;;;4924611;29;20283;-87
2022/10/19 15:40:10;;;;;;;;;;;14.20;99.90;;;;;;4924141;29;19927;-87
2022/10/19 15:42:35;;;;;;;;;;;14.20;99.90;;;;;;4923824;29;19930;-80
2022/10/19 15:45:01;;;;;;;;;;;14.00;99.90;;;;;;4925260;29;19978;-88
2022/10/19 15:47:27;;;;;;;;;;;13.90;99.90;;;;;;4924614;29;19977;-88
2022/10/19 15:49:55;;;;;;;;;;;13.80;99.90;;;;;;4908308;29;19931;-87
2022/10/19 15:52:21;;;;;;;;;;;13.80;99.90;;;;;;4924351;29;19926;-88
2022/10/19 15:54:48;;;;;;;;;;;13.80;99.90;;;;;;4924534;29;19930;-87
2022/10/19 15:57:27;;;;;;;;;;;13.70;99.90;;;;;;4924288;29;19992;-90
2022/10/19 15:59:56;;;;;;;;;;;13.60;99.90;;;;;;4924279;29;20382;-90
2022/10/19 16:02:24;;;;;;;;;;;13.50;99.90;;;;;;4940079;29;19927;-88
2022/10/19 16:04:50;;;;;;;;;;;13.40;99.90;;;;;;4924455;29;19937;-92
2022/10/19 16:07:19;;;;;;;;;;;13.30;99.90;;;;;;4939620;29;20378;-88
2022/10/19 16:09:45;;;;;;;;;;;13.30;99.90;;;;;;4924369;29;19933;-90
2022/10/19 16:12:10;;;;;;;;;;;13.10;99.90;;;;;;4908635;29;19926;-90
2022/10/19 16:14:36;;;;;;;;;;;13.10;99.90;;;;;;4928871;29;19926;-91
2022/10/19 16:17:02;;;;;;;;;;;12.90;99.90;;;;;;4909100;29;20029;-92
2022/10/19 16:19:28;;;;;;;;;;;12.90;99.90;;;;;;4940436;29;19933;-94
2022/10/19 16:21:53;;;;;;;;;;;12.80;99.90;;;;;;4924577;29;19981;-91
2022/10/19 16:24:19;;;;;;;;;;;12.70;99.90;;;;;;4925247;29;19931;-95
2022/10/19 16:26:45;;;;;;;;;;;12.60;99.90;;;;;;4923785;29;20267;-88
2022/10/19 16:29:10;;;;;;;;;;;12.50;99.90;;;;;;4924071;29;19982;-94
2022/10/19 16:31:36;;;;;;;;;;;12.40;99.90;;;;;;4939601;29;19927;-90
2022/10/19 16:34:02;;;;;;;;;;;12.30;99.90;;;;;;4939379;29;19969;-91
2022/10/19 16:36:27;;;;;;;;;;;12.30;99.90;;;;;;4924723;29;19933;-92
2022/10/19 16:38:53;;;;;;;;;;;12.20;99.90;;;;;;4923444;29;19931;-93
2022/10/19 16:41:18;;;;;;;;;;;12.20;99.90;;;;;;4924041;29;19926;-91
2022/10/19 16:43:46;;;;;;;;;;;12.10;99.90;;;;;;4908640;29;19930;-90
2022/10/19 16:46:12;;;;;;;;;;;12.10;99.90;;;;;;4923564;29;19922;-91
2022/10/19 16:48:38;;;;;;;;;;;12.00;99.90;;;;;;4923969;29;19926;-90
2022/10/19 16:51:09;;;;;;;;;;;11.90;99.90;;;;;;4908675;29;19989;-90
2022/10/19 16:53:35;;;;;;;;;;;11.80;99.90;;;;;;4939647;29;19926;-88
2022/10/19 16:56:06;;;;;;;;;;;11.70;99.90;;;;;;4923912;29;19927;-88
2022/10/19 16:58:31;;;;;;;;;;;11.70;99.90;;;;;;4938761;29;20001;-89
2022/10/19 17:01:00;;;;;;;;;;;11.60;99.90;;;;;;4923788;29;19978;-91
2022/10/19 17:03:29;;;;;;;;;;;11.60;99.90;;;;;;4924419;29;19927;-91
2022/10/19 17:05:54;;;;;;;;;;;11.60;99.90;;;;;;4939498;29;19950;-89
2022/10/19 17:08:20;;;;;;;;;;;11.50;99.90;;;;;;4940313;29;19930;-91
2022/10/19 17:10:46;;;;;;;;;;;11.40;99.90;;;;;;4924480;29;19932;-92
2022/10/19 17:13:12;;;;;;;;;;;11.40;99.90;;;;;;4923732;29;20021;-92
2022/10/19 17:15:37;;;;;;;;;;;11.30;99.90;;;;;;4939561;29;19926;-90
2022/10/19 17:18:03;;;;;;;;;;;11.30;99.90;;;;;;4940170;29;19946;-93
2022/10/19 17:20:28;;;;;;;;;;;11.30;99.90;;;;;;4939895;29;19926;-93
2022/10/19 17:22:54;;;;;;;;;;;11.20;99.90;;;;;;4923911;29;19974;-91
2022/10/19 17:25:19;;;;;;;;;;;11.20;99.90;;;;;;4907835;29;20014;-91
2022/10/19 17:27:48;;;;;;;;;;;11.20;99.90;;;;;;4938670;29;19926;-92
2022/10/19 17:30:14;;;;;;;;;;;11.10;99.90;;;;;;4923239;29;20393;-87
2022/10/19 17:32:40;;;;;;;;;;;11.10;99.90;;;;;;4923381;29;19926;-83
2022/10/19 17:35:06;;;;;;;;;;;11.10;99.90;;;;;;4922453;29;20359;-90
2022/10/19 17:37:31;;;;;;;;;;;11.00;99.90;;;;;;4906859;29;19978;-80
2022/10/19 17:39:57;;;;;;;;;;;11.00;99.90;;;;;;4938741;29;19941;-89
2022/10/19 17:42:22;;;;;;;;;;;10.90;99.90;;;;;;4939218;29;19931;-88
2022/10/19 17:44:48;;;;;;;;;;;10.90;99.90;;;;;;4924161;29;19984;-91
2022/10/19 17:47:13;;;;;;;;;;;10.90;99.90;;;;;;4924423;29;19937;-88
2022/10/19 17:49:39;;;;;;;;;;;10.90;99.90;;;;;;4942621;29;19933;-89
2022/10/19 17:52:04;;;;;;;;;;;10.80;99.90;;;;;;4943176;29;20366;-89
2022/10/19 17:54:30;;;;;;;;;;;10.80;99.90;;;;;;4927193;29;19933;-90
2022/10/19 17:56:56;;;;;;;;;;;10.70;99.90;;;;;;4926927;29;20033;-91
2022/10/19 17:59:21;;;;;;;;;;;10.70;99.90;;;;;;4910580;29;19933;-91
2022/10/19 18:01:47;;;;;;;;;;;10.70;99.90;;;;;;4927182;29;19974;-89
2022/10/19 18:04:12;;;;;;;;;;;10.70;99.90;;;;;;4910620;29;19930;-90
2022/10/19 18:06:38;;;;;;;;;;;10.60;99.90;;;;;;4911036;29;19978;-90
2022/10/19 18:09:06;;;;;;;;;;;10.60;99.90;;;;;;4910861;29;19927;-89
2022/10/19 18:11:34;;;;;;;;;;;10.60;99.90;;;;;;4926077;29;19927;-89
2022/10/19 18:14:00;;;;;;;;;;;10.60;99.90;;;;;;4942861;29;19927;-90
2022/10/19 18:16:27;;;;;;;;;;;10.60;99.90;;;;;;4926887;29;19927;-90
2022/10/19 18:18:54;;;;;;;;;;;10.60;99.90;;;;;;4933664;29;20377;-91
2022/10/19 18:21:21;;;;;;;;;;;10.50;99.90;;;;;;4933485;29;19934;-91
2022/10/19 18:23:47;;;;;;;;;;;10.50;99.90;;;;;;4949824;29;19927;-92
2022/10/19 18:26:18;;;;;;;;;;;10.50;99.90;;;;;;4919851;29;19966;-89
2022/10/19 18:28:44;;;;;;;;;;;10.50;99.90;;;;;;4952985;29;19926;-90
2022/10/19 18:31:15;;;;;;;;;;;10.40;99.90;;;;;;4951607;29;19929;-89
2022/10/19 18:33:41;;;;;;;;;;;10.40;99.90;;;;;;4934448;29;20271;-88
2022/10/19 18:36:07;;;;;;;;;;;10.40;99.90;;;;;;4917922;29;19933;-88
2022/10/19 18:38:33;;;;;;;;;;;10.40;99.90;;;;;;4929037;29;19930;-87
2022/10/19 18:41:06;;;;;;;;;;;10.40;99.90;;;;;;4928034;29;19927;-88
2022/10/19 18:43:31;;;;;;;;;;;10.30;99.90;;;;;;4927478;29;19926;-87
2022/10/19 18:45:58;;;;;;;;;;;10.30;99.90;;;;;;4926743;29;20385;-89
2022/10/19 18:48:24;;;;;;;;;;;10.30;99.90;;;;;;4925993;29;19930;-88
2022/10/19 18:50:50;;;;;;;;;;;10.30;99.90;;;;;;4926092;29;19954;-88
2022/10/19 18:53:17;;;;;;;;;;;10.20;99.90;;;;;;4941415;29;19927;-86
2022/10/19 18:55:43;;;;;;;;;;;10.20;99.90;;;;;;4909676;29;19926;-90
2022/10/19 18:58:08;;;;;;;;;;;10.20;99.90;;;;;;4941325;28;19982;-90
2022/10/19 19:00:34;;;;;;;;;;;10.20;99.90;;;;;;4925467;29;20341;-90
2022/10/19 19:03:00;;;;;;;;;;;10.10;99.90;;;;;;4941926;29;20418;-89
2022/10/19 19:05:25;;;;;;;;;;;10.10;99.90;;;;;;4925358;29;19933;-89
2022/10/19 19:07:51;;;;;;;;;;;10.10;99.90;;;;;;4909911;29;19948;-90
2022/10/19 19:10:17;;;;;;;;;;;10.10;99.90;;;;;;4941289;29;20385;-90
2022/10/19 19:12:43;;;;;;;;;;;10.00;99.90;;;;;;4909951;29;19938;-91
2022/10/19 19:15:09;;;;;;;;;;;10.00;99.90;;;;;;4910213;29;20017;-90
2022/10/19 19:17:35;;;;;;;;;;;10.00;99.90;;;;;;4925100;29;19949;-91
2022/10/19 19:20:01;;;;;;;;;;;10.00;99.90;;;;;;4940874;29;20454;-88
2022/10/19 19:22:27;;;;;;;;;;;10.00;99.90;;;;;;4925346;29;19989;-90
2022/10/19 19:24:52;;;;;;;;;;;9.90;99.90;;;;;;4925254;29;19938;-91
2022/10/19 19:27:20;;;;;;;;;;;10.00;99.90;;;;;;4941045;29;20655;-91
2022/10/19 19:29:47;;;;;;;;;;;9.90;99.90;;;;;;4925334;29;19927;-90
2022/10/19 19:32:12;;;;;;;;;;;9.80;99.90;;;;;;4924713;29;19973;-90
2022/10/19 19:34:38;;;;;;;;;;;9.80;99.90;;;;;;4925019;29;19930;-90
2022/10/19 19:37:04;;;;;;;;;;;9.80;99.90;;;;;;4924767;29;19927;-91
2022/10/19 19:39:29;;;;;;;;;;;9.80;99.90;;;;;;4941385;29;20326;-88
2022/10/19 19:41:55;;;;;;;;;;;9.70;99.90;;;;;;4908882;29;19934;-88
2022/10/19 19:44:20;;;;;;;;;;;9.70;99.90;;;;;;4924455;29;19927;-88
2022/10/19 19:46:46;;;;;;;;;;;9.70;99.90;;;;;;4908657;29;20020;-90
2022/10/19 19:49:11;;;;;;;;;;;9.60;99.90;;;;;;4924413;29;19926;-87
2022/10/19 19:51:37;;;;;;;;;;;9.60;99.90;;;;;;4940363;29;19927;-89
2022/10/19 19:54:03;;;;;;;;;;;9.60;99.90;;;;;;4940227;29;20286;-89
2022/10/19 19:56:29;;;;;;;;;;;9.60;99.90;;;;;;4924999;29;19968;-92
2022/10/19 19:58:55;;;;;;;;;;;9.60;99.90;;;;;;4908862;29;19931;-89
2022/10/19 20:01:21;;;;;;;;;;;9.60;99.90;;;;;;4924539;29;19933;-89
2022/10/19 20:03:46;;;;;;;;;;;9.50;99.90;;;;;;4924577;29;19926;-90
2022/10/19 20:06:13;;;;;;;;;;;9.60;99.90;;;;;;4940257;29;19926;-89
2022/10/19 20:08:39;;;;;;;;;;;9.50;99.90;;;;;;4924356;29;19953;-88
2022/10/19 20:11:06;;;;;;;;;;;9.50;99.90;;;;;;4940007;29;19934;-87
2022/10/19 20:13:32;;;;;;;;;;;9.50;99.90;;;;;;4924583;29;19926;-89
2022/10/19 20:16:01;;;;;;;;;;;9.40;99.90;;;;;;4924417;29;19933;-89
2022/10/19 20:18:28;;;;;;;;;;;9.40;99.90;;;;;;4939883;29;19931;-88
2022/10/19 20:20:53;;;;;;;;;;;9.30;99.90;;;;;;4940125;29;19977;-88
2022/10/19 20:23:19;;;;;;;;;;;9.40;99.90;;;;;;4924471;29;19930;-89
2022/10/19 20:25:44;;;;;;;;;;;9.30;99.90;;;;;;4924662;29;19933;-90
2022/10/19 20:28:10;;;;;;;;;;;9.30;99.90;;;;;;4939628;29;19926;-89
2022/10/19 20:30:36;;;;;;;;;;;9.30;99.90;;;;;;4924155;29;20366;-89
2022/10/19 20:33:02;;;;;;;;;;;9.30;99.90;;;;;;4924170;29;19946;-88
2022/10/19 20:35:27;;;;;;;;;;;9.20;99.90;;;;;;4940297;29;19946;-88
2022/10/19 20:37:56;;;;;;;;;;;9.20;99.90;;;;;;4923820;29;19977;-89
2022/10/19 20:40:22;;;;;;;;;;;9.20;99.90;;;;;;4923947;29;20016;-88
2022/10/19 20:42:47;;;;;;;;;;;9.20;99.90;;;;;;4923866;29;20037;-88
2022/10/19 20:45:13;;;;;;;;;;;9.20;99.90;;;;;;4940480;29;19930;-91
2022/10/19 20:47:39;;;;;;;;;;;9.20;99.90;;;;;;4924356;29;19933;-90
2022/10/19 20:50:05;;;;;;;;;;;9.20;99.90;;;;;;4924363;29;19927;-89
2022/10/19 20:52:31;;;;;;;;;;;9.10;99.90;;;;;;4939745;29;20354;-91
2022/10/19 20:54:57;;;;;;;;;;;9.20;99.90;;;;;;4923827;29;19926;-91
2022/10/19 20:57:22;;;;;;;;;;;9.20;99.90;;;;;;4923945;29;19974;-90
2022/10/19 20:59:48;;;;;;;;;;;9.10;99.90;;;;;;4925272;29;19926;-89
2022/10/19 21:02:14;;;;;;;;;;;9.20;99.90;;;;;;4908818;29;19926;-89
2022/10/19 21:04:39;;;;;;;;;;;9.10;99.90;;;;;;4939836;29;19930;-90
2022/10/19 21:07:05;;;;;;;;;;;9.10;99.90;;;;;;4924103;29;19980;-89
2022/10/19 21:09:30;;;;;;;;;;;9.10;99.90;;;;;;4924094;29;20385;-88
2022/10/19 21:11:56;;;;;;;;;;;9.10;99.90;;;;;;4908371;29;19933;-89
2022/10/19 21:14:23;;;;;;;;;;;9.00;99.90;;;;;;4908036;29;20366;-89
2022/10/19 21:16:49;;;;;;;;;;;9.10;99.90;;;;;;4923902;29;19927;-89
2022/10/19 21:19:16;;;;;;;;;;;9.00;99.90;;;;;;4939938;29;19933;-88
2022/10/19 21:21:43;;;;;;;;;;;9.00;99.90;;;;;;4939956;29;20330;-89
2022/10/19 21:24:10;;;;;;;;;;;8.90;99.90;;;;;;4927756;29;19977;-89
2022/10/19 21:26:36;;;;;;;;;;;8.90;99.90;;;;;;4943857;29;19933;-89
2022/10/19 21:29:03;;;;;;;;;;;8.80;99.90;;;;;;4926569;29;19970;-89
2022/10/19 21:31:29;;;;;;;;;;;8.80;99.90;;;;;;4943481;29;19978;-88
2022/10/19 21:33:55;;;;;;;;;;;8.80;99.90;;;;;;4911760;29;19927;-87
2022/10/19 21:36:23;;;;;;;;;;;8.70;99.90;;;;;;4927144;29;19927;-89
2022/10/19 21:38:49;;;;;;;;;;;8.70;99.90;;;;;;4943542;29;20024;-88
2022/10/19 21:41:16;;;;;;;;;;;8.70;99.90;;;;;;4942906;29;19981;-88
2022/10/19 21:43:41;;;;;;;;;;;8.60;99.90;;;;;;4927012;29;19980;-89
2022/10/19 21:46:10;;;;;;;;;;;8.60;99.90;;;;;;4927212;29;19926;-88
2022/10/19 21:48:36;;;;;;;;;;;8.50;99.90;;;;;;4942971;29;19927;-89
2022/10/19 21:51:22;;;;;;;;;;;8.50;99.90;;;;;;4927143;29;20377;-89
2022/10/19 21:53:47;;;;;;;;;;;8.50;99.90;;;;;;4925994;29;19977;-90
2022/10/19 21:56:13;;;;;;;;;;;8.40;99.90;;;;;;4942883;29;19989;-89
2022/10/19 21:58:43;;;;;;;;;;;8.40;99.90;;;;;;4926363;29;19933;-88
2022/10/19 22:01:08;;;;;;;;;;;8.30;99.90;;;;;;4943295;29;19927;-89
2022/10/19 22:03:34;;;;;;;;;;;8.30;99.90;;;;;;4943346;29;20366;-87
2022/10/19 22:05:59;;;;;;;;;;;8.30;99.90;;;;;;4926352;29;19926;-89
2022/10/19 22:08:25;;;;;;;;;;;8.30;99.90;;;;;;4910858;29;19956;-89
2022/10/19 22:10:51;;;;;;;;;;;8.30;99.90;;;;;;4927006;29;19926;-89
2022/10/19 22:13:16;;;;;;;;;;;8.20;99.90;;;;;;4942581;29;20370;-89
2022/10/19 22:15:42;;;;;;;;;;;8.20;99.90;;;;;;4927193;29;19926;-89
2022/10/19 22:18:07;;;;;;;;;;;8.20;99.90;;;;;;4926738;29;20296;-89
2022/10/19 22:20:35;;;;;;;;;;;8.20;99.90;;;;;;4911611;29;19931;-89
2022/10/19 22:23:01;;;;;;;;;;;8.20;99.90;;;;;;4911518;29;19927;-89
2022/10/19 22:25:28;;;;;;;;;;;8.10;99.90;;;;;;4926417;29;19926;-89
2022/10/19 22:27:53;;;;;;;;;;;8.20;99.90;;;;;;4938403;29;20009;-88
2022/10/19 22:30:19;;;;;;;;;;;8.20;99.90;;;;;;4922537;29;19985;-89
2022/10/19 22:32:44;;;;;;;;;;;8.20;99.90;;;;;;4924990;29;19934;-89
2022/10/19 22:35:10;;;;;;;;;;;8.20;99.90;;;;;;4941054;29;19934;-89
2022/10/19 22:37:36;;;;;;;;;;;8.20;99.90;;;;;;4941710;29;19933;-88
2022/10/19 22:40:01;;;;;;;;;;;8.20;99.90;;;;;;4910605;29;20285;-88
2022/10/19 22:45:30;;;;;;;;;;;8.20;99.90;;;;;;4941872;29;19949;-89
2022/10/19 22:47:55;;;;;;;;;;;8.20;99.90;;;;;;4925813;29;20354;-88
2022/10/19 22:50:21;;;;;;;;;;;8.20;99.90;;;;;;4925339;29;19980;-88
2022/10/19 22:52:46;;;;;;;;;;;8.20;99.90;;;;;;4925737;29;19926;-88
2022/10/19 22:55:12;;;;;;;;;;;8.20;99.90;;;;;;4941326;29;19926;-89
2022/10/19 22:57:38;;;;;;;;;;;8.20;99.90;;;;;;4925531;29;19926;-87
2022/10/19 23:00:03;;;;;;;;;;;8.20;99.90;;;;;;4925773;29;20323;-89
2022/10/19 23:02:29;;;;;;;;;;;8.10;99.90;;;;;;4941451;29;19948;-88
2022/10/19 23:04:54;;;;;;;;;;;8.20;99.90;;;;;;4941529;29;20045;-88
2022/10/19 23:07:20;;;;;;;;;;;8.10;99.90;;;;;;4925669;29;19927;-88
2022/10/19 23:09:45;;;;;;;;;;;8.10;99.90;;;;;;4910644;29;19932;-89
2022/10/19 23:12:11;;;;;;;;;;;8.10;99.90;;;;;;4910462;29;19926;-89
2022/10/19 23:14:37;;;;;;;;;;;8.00;99.90;;;;;;4925484;29;19927;-86
2022/10/19 23:17:02;;;;;;;;;;;8.00;99.90;;;;;;4925436;29;19973;-89
2022/10/19 23:19:28;;;;;;;;;;;8.00;99.90;;;;;;4925416;29;19926;-89
2022/10/19 23:21:53;;;;;;;;;;;8.00;99.90;;;;;;4910295;29;19931;-88
2022/10/19 23:24:19;;;;;;;;;;;7.90;99.90;;;;;;4924886;29;19926;-88
2022/10/19 23:26:44;;;;;;;;;;;7.90;99.90;;;;;;4941245;29;19933;-88
2022/10/19 23:29:10;;;;;;;;;;;7.90;99.90;;;;;;4940703;29;19926;-88
2022/10/19 23:31:37;;;;;;;;;;;7.90;99.90;;;;;;4909252;29;19993;-88
2022/10/19 23:34:02;;;;;;;;;;;7.90;99.90;;;;;;4925900;29;20021;-88
2022/10/19 23:36:28;;;;;;;;;;;7.90;99.90;;;;;;4925591;29;19996;-87
2022/10/19 23:38:54;;;;;;;;;;;7.90;99.90;;;;;;4924921;29;19934;-87
2022/10/19 23:41:20;;;;;;;;;;;7.80;99.90;;;;;;4925733;29;19932;-89
2022/10/19 23:43:46;;;;;;;;;;;7.90;99.90;;;;;;4940773;29;19933;-88
2022/10/19 23:46:12;;;;;;;;;;;7.80;99.90;;;;;;4940653;29;19930;-89
2022/10/19 23:48:38;;;;;;;;;;;7.80;99.90;;;;;;4940527;29;19978;-88
2022/10/19 23:51:08;;;;;;;;;;;7.70;99.90;;;;;;4941349;29;19937;-89
2022/10/19 23:53:35;;;;;;;;;;;7.70;99.90;;;;;;4940691;29;19931;-88
2022/10/19 23:56:02;;;;;;;;;;;7.60;99.90;;;;;;4940597;29;19926;-89
2022/10/19 23:58:27;;;;;;;;;;;7.60;99.90;;;;;;4924412;29;19926;-86
